createdAt,value
2018-01-13T00:00:51.368Z,10.60
2018-01-13T00:03:21.021Z,10.50
2018-01-13T00:05:49.908Z,10.40
2018-01-13T00:08:19.257Z,10.40
2018-01-13T00:10:48.252Z,10.40
2018-01-13T00:13:17.858Z,10.50
2018-01-13T00:15:47.213Z,10.50
2018-01-13T00:18:16.102Z,10.50
2018-01-13T00:20:45.612Z,10.40
2018-01-13T00:23:15.114Z,10.40
2018-01-13T00:25:44.009Z,10.30
2018-01-13T00:28:13.129Z,10.40
2018-01-13T00:30:42.431Z,10.40
2018-01-13T00:33:11.521Z,10.40
2018-01-13T00:35:41.411Z,10.50
2018-01-13T00:38:10.301Z,10.50
2018-01-13T00:40:39.027Z,10.50
2018-01-13T00:43:07.986Z,10.50
2018-01-13T00:45:37.296Z,10.40
2018-01-13T00:48:06.172Z,10.50
2018-01-13T00:50:34.859Z,10.40
2018-01-13T00:53:04.029Z,10.30
2018-01-13T00:55:33.938Z,10.30
2018-01-13T00:58:04.607Z,10.30
2018-01-13T01:00:34.521Z,10.40
2018-01-13T01:03:04.028Z,10.40
2018-01-13T01:05:32.811Z,10.30
2018-01-13T01:08:01.833Z,10.30
2018-01-13T01:10:30.697Z,10.40
2018-01-13T01:12:59.488Z,10.30
2018-01-13T01:15:28.791Z,10.40
2018-01-13T01:17:57.575Z,10.40
2018-01-13T01:20:26.334Z,10.40
2018-01-13T01:22:55.263Z,10.30
2018-01-13T01:25:24.860Z,10.20
2018-01-13T01:27:53.652Z,10.20
2018-01-13T01:30:22.441Z,10.20
2018-01-13T01:32:51.485Z,10.20
2018-01-13T01:35:20.432Z,10.20
2018-01-13T01:37:49.316Z,10.20
2018-01-13T01:40:17.946Z,10.20
2018-01-13T01:42:46.797Z,10.20
2018-01-13T01:45:15.691Z,10.20
2018-01-13T01:47:45.781Z,10.20
2018-01-13T01:50:15.419Z,10.20
2018-01-13T01:52:44.628Z,10.30
2018-01-13T01:55:13.402Z,10.20
2018-01-13T01:57:42.289Z,10.30
2018-01-13T02:00:11.078Z,10.30
2018-01-13T02:02:39.970Z,10.30
2018-01-13T02:05:08.797Z,10.30
2018-01-13T02:07:38.473Z,10.30
2018-01-13T02:10:08.086Z,10.30
2018-01-13T02:12:37.053Z,10.30
2018-01-13T02:15:05.960Z,10.30
2018-01-13T02:17:35.055Z,10.30
2018-01-13T02:20:04.835Z,10.20
2018-01-13T02:22:33.769Z,10.20
2018-01-13T02:25:02.650Z,10.20
2018-01-13T02:27:31.501Z,10.20
2018-01-13T02:30:01.151Z,10.10
2018-01-13T02:32:30.042Z,10.10
2018-01-13T02:34:58.928Z,10.10
2018-01-13T02:37:27.828Z,10.10
2018-01-13T02:39:57.023Z,10.10
2018-01-13T02:42:25.814Z,10.10
2018-01-13T02:44:54.497Z,10.20
2018-01-13T02:47:23.181Z,10.20
2018-01-13T02:49:52.072Z,10.20
2018-01-13T02:52:20.860Z,10.20
2018-01-13T02:54:49.545Z,10.20
2018-01-13T02:57:19.416Z,10.10
2018-01-13T02:59:48.354Z,10.10
2018-01-13T03:02:17.040Z,10.10
2018-01-13T03:04:45.932Z,10.10
2018-01-13T03:07:14.821Z,10.00
2018-01-13T03:09:43.715Z,10.10
2018-01-13T03:12:12.617Z,10.00
2018-01-13T03:14:42.731Z,10.00
2018-01-13T03:17:11.784Z,10.00
2018-01-13T03:19:40.745Z,10.00
2018-01-13T03:22:10.498Z,9.90
2018-01-13T03:24:40.952Z,10.00
2018-01-13T03:27:09.806Z,9.90
2018-01-13T03:29:38.891Z,9.90
2018-01-13T03:32:08.132Z,9.90
2018-01-13T03:34:37.236Z,9.90
2018-01-13T03:37:06.228Z,9.90
2018-01-13T03:39:35.276Z,10.00
2018-01-13T03:42:04.005Z,9.90
2018-01-13T03:44:32.692Z,9.90
2018-01-13T03:47:01.559Z,9.90
2018-01-13T03:49:30.881Z,9.90
2018-01-13T03:51:59.718Z,9.90
2018-01-13T03:54:28.815Z,9.90
2018-01-13T03:56:57.850Z,9.90
2018-01-13T03:59:26.650Z,9.80
2018-01-13T04:01:55.512Z,9.90
2018-01-13T04:04:24.281Z,9.90
2018-01-13T04:06:53.924Z,9.90
2018-01-13T04:09:22.963Z,9.90
2018-01-13T04:11:52.335Z,9.90
2018-01-13T04:14:21.131Z,9.90
2018-01-13T04:16:49.919Z,9.90
2018-01-13T04:19:18.813Z,9.90
2018-01-13T04:21:47.743Z,9.90
2018-01-13T04:24:16.488Z,9.90
2018-01-13T04:26:45.610Z,9.80
2018-01-13T04:29:14.764Z,9.90
2018-01-13T04:31:43.777Z,9.90
2018-01-13T04:34:12.921Z,9.90
2018-01-13T04:36:42.293Z,9.80
2018-01-13T04:39:11.278Z,9.90
2018-01-13T04:41:40.536Z,9.80
2018-01-13T04:44:10.688Z,9.80
2018-01-13T04:46:40.095Z,9.80
2018-01-13T04:49:09.054Z,9.80
2018-01-13T04:51:38.697Z,9.80
2018-01-13T04:54:07.388Z,9.80
2018-01-13T04:56:36.582Z,9.90
2018-01-13T04:59:05.847Z,9.80
2018-01-13T05:01:34.696Z,9.80
2018-01-13T05:04:03.759Z,9.70
2018-01-13T05:06:32.443Z,9.70
2018-01-13T05:09:01.612Z,9.70
2018-01-13T05:11:30.647Z,9.70
2018-01-13T05:13:59.630Z,9.70
2018-01-13T05:16:28.834Z,9.70
2018-01-13T05:18:57.819Z,9.60
2018-01-13T05:21:26.857Z,9.60
2018-01-13T05:23:56.267Z,9.60
2018-01-13T05:26:25.003Z,9.60
2018-01-13T05:28:53.901Z,9.50
2018-01-13T05:31:22.861Z,9.50
2018-01-13T05:33:51.778Z,9.50
2018-01-13T05:36:20.675Z,9.50
2018-01-13T05:38:49.502Z,9.50
2018-01-13T05:41:18.238Z,9.40
2018-01-13T05:43:48.197Z,9.50
2018-01-13T05:46:17.296Z,9.40
2018-01-13T05:48:46.763Z,9.40
2018-01-13T05:51:15.655Z,9.50
2018-01-13T05:53:44.863Z,9.50
2018-01-13T05:56:13.959Z,9.50
2018-01-13T05:58:42.955Z,9.50
2018-01-13T06:01:11.978Z,9.50
2018-01-13T06:03:40.857Z,9.50
2018-01-13T06:06:10.300Z,9.50
2018-01-13T06:08:39.240Z,9.50
2018-01-13T06:11:11.996Z,9.40
2018-01-13T06:13:41.213Z,9.50
2018-01-13T06:16:10.098Z,9.40
2018-01-13T06:18:39.279Z,9.50
2018-01-13T06:21:08.268Z,9.50
2018-01-13T06:23:38.220Z,9.50
2018-01-13T06:26:07.097Z,9.50
2018-01-13T06:28:36.300Z,9.60
2018-01-13T06:31:05.123Z,9.60
2018-01-13T06:33:34.075Z,9.50
2018-01-13T06:36:02.861Z,9.60
2018-01-13T06:38:32.468Z,9.60
2018-01-13T06:41:01.203Z,9.50
2018-01-13T06:43:29.905Z,9.50
2018-01-13T06:45:58.650Z,9.50
2018-01-13T06:48:27.482Z,9.50
2018-01-13T06:50:56.210Z,9.50
2018-01-13T06:53:24.997Z,9.50
2018-01-13T06:55:53.785Z,9.50
2018-01-13T06:58:23.393Z,9.50
2018-01-13T07:00:52.188Z,9.60
2018-01-13T07:03:21.214Z,9.60
2018-01-13T07:05:50.279Z,9.70
2018-01-13T07:08:18.901Z,9.70
2018-01-13T07:10:47.809Z,9.70
2018-01-13T07:13:16.540Z,9.70
2018-01-13T07:15:45.184Z,9.70
2018-01-13T07:18:14.728Z,9.70
2018-01-13T07:20:43.572Z,9.60
2018-01-13T07:23:13.137Z,9.70
2018-01-13T07:25:42.013Z,9.60
2018-01-13T07:28:10.659Z,9.70
2018-01-13T07:30:40.111Z,9.70
2018-01-13T07:33:08.796Z,9.70
2018-01-13T07:35:37.682Z,9.70
2018-01-13T07:38:06.318Z,9.70
2018-01-13T07:40:35.060Z,9.70
2018-01-13T07:43:03.845Z,9.80
2018-01-13T07:45:32.535Z,9.90
2018-01-13T07:48:01.253Z,10.00
2018-01-13T07:50:30.005Z,10.00
2018-01-13T07:52:58.695Z,10.00
2018-01-13T07:55:27.583Z,10.00
2018-01-13T07:57:56.476Z,10.00
2018-01-13T08:00:25.722Z,10.10
2018-01-13T08:02:54.487Z,10.00
2018-01-13T08:05:23.357Z,10.20
2018-01-13T08:07:52.035Z,10.20
2018-01-13T08:10:20.828Z,10.30
2018-01-13T08:12:49.617Z,10.30
2018-01-13T08:15:18.505Z,10.40
2018-01-13T08:17:47.342Z,10.40
2018-01-13T08:20:16.085Z,10.40
2018-01-13T08:22:44.975Z,10.40
2018-01-13T08:25:13.860Z,10.40
2018-01-13T08:27:42.547Z,10.30
2018-01-13T08:30:11.236Z,10.30
2018-01-13T08:32:40.126Z,10.20
2018-01-13T08:35:08.815Z,10.20
2018-01-13T08:37:37.498Z,10.20
2018-01-13T08:40:06.186Z,10.30
2018-01-13T08:42:34.873Z,10.30
2018-01-13T08:45:03.656Z,10.40
2018-01-13T08:47:32.651Z,10.40
2018-01-13T08:50:01.338Z,10.50
2018-01-13T08:52:30.230Z,10.60
2018-01-13T08:54:59.116Z,10.70
2018-01-13T08:57:27.908Z,10.90
2018-01-13T08:59:56.592Z,11.00
2018-01-13T09:02:29.990Z,11.20
2018-01-13T09:04:58.989Z,11.20
2018-01-13T09:07:27.773Z,11.40
2018-01-13T09:09:56.668Z,11.50
2018-01-13T09:12:26.682Z,11.60
2018-01-13T09:14:55.571Z,11.60
2018-01-13T09:17:24.462Z,11.50
2018-01-13T09:19:53.249Z,11.50
2018-01-13T09:22:22.090Z,11.60
2018-01-13T09:24:51.651Z,11.50
2018-01-13T09:27:20.435Z,11.50
2018-01-13T09:29:49.225Z,11.60
2018-01-13T09:32:18.139Z,11.70
2018-01-13T09:34:47.208Z,11.70
2018-01-13T09:37:16.105Z,11.80
2018-01-13T09:39:44.934Z,11.90
2018-01-13T09:42:13.682Z,12.00
2018-01-13T09:44:42.673Z,12.20
2018-01-13T09:47:11.566Z,12.30
2018-01-13T09:49:40.249Z,12.30
2018-01-13T09:52:09.347Z,12.30
2018-01-13T09:54:38.176Z,12.30
2018-01-13T09:57:06.924Z,12.20
2018-01-13T09:59:35.709Z,12.00
2018-01-13T10:02:04.706Z,12.10
2018-01-13T10:04:33.394Z,12.20
2018-01-13T10:07:02.056Z,12.30
2018-01-13T10:09:30.969Z,12.30
2018-01-13T10:12:00.067Z,12.20
2018-01-13T10:14:28.959Z,12.30
2018-01-13T10:16:57.847Z,12.30
2018-01-13T10:19:26.743Z,12.30
2018-01-13T10:21:55.377Z,12.50
2018-01-13T10:24:24.528Z,12.70
2018-01-13T10:26:53.311Z,12.90
2018-01-13T10:29:22.119Z,12.80
2018-01-13T10:31:51.095Z,13.00
2018-01-13T10:34:19.926Z,12.90
2018-01-13T10:36:49.490Z,12.90
2018-01-13T10:39:18.381Z,12.90
2018-01-13T10:41:47.188Z,13.10
2018-01-13T10:44:16.060Z,13.00
2018-01-13T10:46:44.951Z,12.90
2018-01-13T10:49:13.840Z,13.30
2018-01-13T10:51:42.731Z,13.50
2018-01-13T10:54:12.648Z,13.60
2018-01-13T10:56:41.535Z,13.80
2018-01-13T10:59:10.323Z,13.80
2018-01-13T11:01:39.214Z,14.00
2018-01-13T11:04:07.914Z,13.70
2018-01-13T11:06:36.847Z,13.20
2018-01-13T11:09:05.796Z,13.00
2018-01-13T11:11:34.470Z,13.10
2018-01-13T11:14:03.260Z,13.20
2018-01-13T11:16:32.253Z,13.20
2018-01-13T11:19:01.145Z,13.10
2018-01-13T11:21:30.185Z,13.00
2018-01-13T11:23:59.240Z,13.30
2018-01-13T11:26:28.028Z,13.30
2018-01-13T11:28:56.713Z,13.40
2018-01-13T11:31:25.819Z,13.40
2018-01-13T11:33:54.705Z,13.50
2018-01-13T11:36:23.590Z,13.40
2018-01-13T11:38:52.558Z,13.50
2018-01-13T11:41:21.580Z,13.20
2018-01-13T11:43:50.467Z,13.00
2018-01-13T11:46:19.355Z,13.10
2018-01-13T11:48:48.250Z,13.20
2018-01-13T11:51:16.938Z,13.50
2018-01-13T11:53:45.844Z,13.80
2018-01-13T11:56:14.625Z,13.90
2018-01-13T11:58:43.403Z,14.20
2018-01-13T12:01:12.195Z,14.20
2018-01-13T12:03:40.882Z,13.90
2018-01-13T12:06:09.959Z,13.80
2018-01-13T12:08:38.658Z,13.60
2018-01-13T12:11:07.345Z,13.90
2018-01-13T12:13:37.004Z,13.70
2018-01-13T12:16:05.908Z,13.70
2018-01-13T12:18:34.636Z,13.70
2018-01-13T12:21:03.899Z,13.80
2018-01-13T12:23:33.645Z,13.80
2018-01-13T12:26:02.538Z,13.80
2018-01-13T12:28:31.570Z,13.60
2018-01-13T12:31:00.537Z,13.50
2018-01-13T12:33:29.619Z,13.50
2018-01-13T12:35:58.595Z,13.80
2018-01-13T12:38:28.328Z,13.90
2018-01-13T12:40:57.317Z,14.00
2018-01-13T12:43:26.007Z,14.10
2018-01-13T12:45:55.094Z,14.10
2018-01-13T12:48:24.193Z,13.90
2018-01-13T12:50:53.408Z,13.40
2018-01-13T12:53:22.385Z,13.40
2018-01-13T12:55:51.391Z,13.60
2018-01-13T12:58:20.169Z,13.80
2018-01-13T13:00:49.896Z,13.90
2018-01-13T13:03:19.538Z,14.20
2018-01-13T13:05:48.279Z,14.20
2018-01-13T13:08:17.532Z,14.30
2018-01-13T13:10:46.257Z,13.90
2018-01-13T13:13:14.944Z,13.90
2018-01-13T13:15:43.588Z,13.90
2018-01-13T13:18:12.323Z,13.70
2018-01-13T13:20:41.004Z,13.70
2018-01-13T13:23:09.905Z,13.90
2018-01-13T13:25:38.786Z,14.10
2018-01-13T13:28:07.676Z,14.20
2018-01-13T13:30:36.576Z,13.80
2018-01-13T13:33:05.258Z,13.60
2018-01-13T13:35:34.146Z,13.60
2018-01-13T13:38:02.830Z,13.40
2018-01-13T13:40:31.725Z,13.50
2018-01-13T13:43:00.460Z,13.80
2018-01-13T13:45:30.020Z,14.20
2018-01-13T13:47:58.908Z,14.20
2018-01-13T13:50:27.798Z,14.20
2018-01-13T13:52:56.896Z,14.00
2018-01-13T13:55:25.994Z,14.20
2018-01-13T13:57:54.885Z,14.40
2018-01-13T14:00:23.716Z,14.00
2018-01-13T14:02:52.668Z,13.90
2018-01-13T14:05:21.514Z,13.80
2018-01-13T14:07:50.243Z,13.60
2018-01-13T14:10:19.647Z,13.50
2018-01-13T14:12:48.538Z,13.50
2018-01-13T14:15:17.220Z,13.60
2018-01-13T14:17:46.131Z,13.60
2018-01-13T14:20:15.823Z,13.90
2018-01-13T14:22:44.509Z,13.90
2018-01-13T14:25:13.193Z,14.00
2018-01-13T14:27:42.287Z,13.90
2018-01-13T14:30:11.170Z,14.00
2018-01-13T14:32:39.865Z,14.20
2018-01-13T14:35:08.757Z,14.00
2018-01-13T14:37:37.647Z,14.00
2018-01-13T14:40:06.332Z,14.20
2018-01-13T14:42:35.223Z,14.20
2018-01-13T14:45:04.019Z,14.20
2018-01-13T14:47:32.700Z,14.10
2018-01-13T14:50:01.596Z,14.20
2018-01-13T14:52:30.996Z,14.00
2018-01-13T14:54:59.786Z,14.00
2018-01-13T14:57:28.679Z,13.90
2018-01-13T14:59:57.874Z,13.70
2018-01-13T15:02:26.561Z,13.50
2018-01-13T15:04:56.113Z,13.60
2018-01-13T15:07:25.044Z,13.80
2018-01-13T15:09:53.947Z,13.70
2018-01-13T15:12:23.190Z,13.50
2018-01-13T15:14:52.246Z,13.50
2018-01-13T15:17:21.570Z,13.40
2018-01-13T15:19:50.331Z,13.40
2018-01-13T15:22:18.963Z,13.30
2018-01-13T15:24:47.807Z,13.40
2018-01-13T15:27:16.701Z,13.50
2018-01-13T15:29:45.591Z,13.50
2018-01-13T15:32:14.376Z,13.40
2018-01-13T15:34:43.267Z,13.30
2018-01-13T15:37:12.567Z,13.30
2018-01-13T15:39:41.254Z,13.30
2018-01-13T15:42:11.680Z,13.50
2018-01-13T15:44:40.570Z,13.40
2018-01-13T15:47:09.465Z,13.40
2018-01-13T15:49:38.297Z,13.30
2018-01-13T15:52:07.141Z,13.40
2018-01-13T15:54:36.036Z,13.40
2018-01-13T15:57:04.926Z,13.40
2018-01-13T15:59:33.816Z,13.40
2018-01-13T16:02:02.503Z,13.30
2018-01-13T16:04:33.031Z,13.30
2018-01-13T16:07:01.703Z,13.30
2018-01-13T16:09:30.422Z,13.40
2018-01-13T16:11:59.304Z,13.40
2018-01-13T16:14:28.681Z,13.30
2018-01-13T16:16:58.034Z,13.30
2018-01-13T16:19:26.786Z,13.30
2018-01-13T16:21:55.652Z,13.30
2018-01-13T16:24:24.368Z,13.30
2018-01-13T16:26:54.088Z,13.30
2018-01-13T16:29:23.990Z,13.30
2018-01-13T16:31:52.883Z,13.30
2018-01-13T16:34:21.671Z,13.30
2018-01-13T16:36:50.869Z,13.30
2018-01-13T16:39:19.658Z,13.30
2018-01-13T16:41:49.572Z,13.20
2018-01-13T16:44:19.087Z,13.30
2018-01-13T16:46:48.463Z,13.20
2018-01-13T16:49:18.407Z,13.30
2018-01-13T16:51:47.902Z,13.20
2018-01-13T16:54:18.661Z,13.30
2018-01-13T16:56:48.317Z,13.30
2018-01-13T16:59:17.350Z,13.20
2018-01-13T17:01:46.479Z,13.30
2018-01-13T17:04:16.125Z,13.20
2018-01-13T17:06:45.722Z,13.20
2018-01-13T17:09:14.775Z,13.30
2018-01-13T17:11:44.462Z,13.40
2018-01-13T17:14:13.148Z,13.30
2018-01-13T17:16:42.243Z,13.30
2018-01-13T17:19:12.395Z,13.50
2018-01-13T17:21:41.351Z,13.50
2018-01-13T17:24:10.383Z,13.50
2018-01-13T17:26:39.139Z,13.50
2018-01-13T17:29:07.780Z,13.50
2018-01-13T17:31:36.507Z,13.50
2018-01-13T17:34:05.359Z,13.50
2018-01-13T17:36:34.538Z,13.60
2018-01-13T17:39:03.386Z,13.60
2018-01-13T17:41:32.277Z,13.60
2018-01-13T17:44:01.178Z,13.50
2018-01-13T17:46:30.057Z,13.50
2018-01-13T17:48:59.097Z,13.60
2018-01-13T17:51:27.837Z,13.60
2018-01-13T17:53:56.527Z,13.50
2018-01-13T17:56:25.155Z,13.50
2018-01-13T17:58:53.904Z,13.60
2018-01-13T18:01:22.912Z,13.60
2018-01-13T18:03:52.097Z,13.60
2018-01-13T18:06:22.006Z,13.70
2018-01-13T18:08:51.721Z,13.70
2018-01-13T18:11:20.634Z,13.70
2018-01-13T18:13:49.501Z,13.60
2018-01-13T18:16:18.187Z,13.70
2018-01-13T18:18:46.875Z,13.70
2018-01-13T18:21:15.556Z,13.70
2018-01-13T18:23:44.394Z,13.60
2018-01-13T18:26:26.442Z,13.50
2018-01-13T18:28:55.343Z,13.60
2018-01-13T18:31:24.023Z,13.50
2018-01-13T18:33:52.705Z,13.50
2018-01-13T18:36:21.614Z,13.40
2018-01-13T18:38:50.541Z,13.30
2018-01-13T18:41:20.200Z,13.10
2018-01-13T18:43:49.181Z,13.10
2018-01-13T18:46:18.184Z,13.00
2018-01-13T18:48:47.072Z,13.00
2018-01-13T18:51:15.868Z,13.00
2018-01-13T18:53:44.553Z,12.90
2018-01-13T18:56:13.236Z,12.80
2018-01-13T18:58:42.183Z,12.90
2018-01-13T19:01:12.142Z,12.90
2018-01-13T19:03:41.251Z,12.90
2018-01-13T19:06:10.130Z,12.90
2018-01-13T19:08:38.816Z,12.90
2018-01-13T19:17:02.803Z,12.90
2018-01-13T19:19:31.597Z,13.00
2018-01-13T19:22:00.367Z,13.00
2018-01-13T19:24:29.104Z,13.00
2018-01-13T19:26:58.009Z,13.00
2018-01-13T19:29:26.818Z,13.00
2018-01-13T19:31:56.999Z,13.00
2018-01-13T19:34:25.879Z,13.00
2018-01-13T19:36:54.784Z,13.10
2018-01-13T19:39:23.673Z,13.20
2018-01-13T19:41:52.359Z,13.30
2018-01-13T19:44:21.046Z,13.20
2018-01-13T19:46:49.677Z,13.10
2018-01-13T19:49:19.850Z,13.00
2018-01-13T19:51:48.742Z,13.00
2018-01-13T19:54:17.432Z,13.10
2018-01-13T19:56:46.328Z,13.10
2018-01-13T19:59:15.619Z,13.10
2018-01-13T20:01:44.309Z,13.10
2018-01-13T20:04:12.950Z,13.00
2018-01-13T20:06:41.625Z,13.00
2018-01-13T20:09:10.364Z,13.10
2018-01-13T20:11:39.054Z,13.10
2018-01-13T20:14:07.738Z,13.10
2018-01-13T20:16:36.380Z,13.10
2018-01-13T20:19:05.060Z,13.10
2018-01-13T20:21:34.990Z,13.00
2018-01-13T20:24:04.537Z,13.10
2018-01-13T20:26:33.421Z,13.10
2018-01-13T20:29:03.115Z,13.00
2018-01-13T20:31:31.765Z,13.00
2018-01-13T20:34:01.271Z,13.00
2018-01-13T20:36:30.012Z,13.00
2018-01-13T20:38:58.703Z,13.00
2018-01-13T20:41:27.594Z,13.00
2018-01-13T20:43:56.477Z,13.10
2018-01-13T20:46:25.106Z,13.10
2018-01-13T20:48:53.851Z,13.10
2018-01-13T20:51:22.539Z,13.10
2018-01-13T20:53:51.221Z,13.10
2018-01-13T20:56:20.114Z,13.00
2018-01-13T20:58:48.823Z,12.90
2018-01-13T21:01:17.690Z,12.80
2018-01-13T21:03:46.586Z,12.70
2018-01-13T21:06:15.267Z,12.60
2018-01-13T21:08:43.953Z,12.50
2018-01-13T21:11:12.851Z,12.50
2018-01-13T21:13:41.931Z,12.40
2018-01-13T21:16:10.628Z,12.20
2018-01-13T21:18:39.359Z,12.20
2018-01-13T21:21:08.004Z,12.20
2018-01-13T21:23:37.049Z,12.20
2018-01-13T21:26:06.297Z,12.20
2018-01-13T21:28:34.980Z,12.20
2018-01-13T21:31:03.557Z,12.10
2018-01-13T21:33:32.252Z,12.10
2018-01-13T21:36:01.039Z,12.10
2018-01-13T21:38:29.723Z,12.20
2018-01-13T21:40:58.620Z,12.10
2018-01-13T21:43:27.505Z,12.10
2018-01-13T21:45:56.194Z,11.10
2018-01-13T21:48:24.881Z,12.20
2018-01-13T21:50:55.026Z,12.20
2018-01-13T21:53:23.891Z,12.10
2018-01-13T21:55:52.790Z,12.10
2018-01-13T21:58:22.082Z,12.00
2018-01-13T22:00:50.769Z,12.00
2018-01-13T22:03:19.609Z,12.00
2018-01-13T22:05:48.347Z,12.10
2018-01-13T22:08:17.134Z,12.20
2018-01-13T22:10:45.959Z,12.20
2018-01-13T22:13:14.712Z,12.20
2018-01-13T22:15:43.409Z,12.20
2018-01-13T22:18:12.088Z,12.20
2018-01-13T22:20:40.778Z,12.20
2018-01-13T22:23:09.460Z,12.30
2018-01-13T22:25:38.361Z,12.30
2018-01-13T22:28:07.035Z,12.30
2018-01-13T22:30:35.722Z,12.40
2018-01-13T22:33:04.408Z,12.30
2018-01-13T22:35:33.036Z,12.30
2018-01-13T22:38:01.784Z,12.30
2018-01-13T22:40:30.400Z,12.40
2018-01-13T22:42:59.186Z,12.40
2018-01-13T22:45:28.043Z,12.50
2018-01-13T22:47:56.972Z,12.50
2018-01-13T22:50:25.825Z,12.60
2018-01-13T22:52:54.508Z,12.50
2018-01-13T22:55:23.416Z,12.50
2018-01-13T22:57:52.294Z,12.50
2018-01-13T23:00:38.388Z,12.60
2018-01-13T23:03:07.070Z,12.60
2018-01-13T23:05:35.864Z,12.60
2018-01-13T23:08:04.548Z,12.60
2018-01-13T23:10:33.233Z,12.70
2018-01-13T23:13:01.921Z,12.70
2018-01-13T23:15:30.809Z,12.70
2018-01-13T23:17:59.498Z,12.60
2018-01-13T23:20:28.183Z,12.30
2018-01-13T23:22:58.512Z,12.20
2018-01-13T23:25:27.193Z,12.20
2018-01-13T23:27:56.094Z,12.20
2018-01-13T23:30:24.770Z,12.10
2018-01-13T23:32:53.455Z,12.10
2018-01-13T23:35:23.786Z,11.80
2018-01-13T23:37:52.420Z,11.80
2018-01-13T23:40:21.870Z,11.50
2018-01-13T23:42:50.554Z,11.50
2018-01-13T23:45:19.446Z,11.60
2018-01-13T23:47:48.344Z,11.50
2018-01-13T23:50:17.433Z,11.50
2018-01-13T23:52:46.329Z,11.50
2018-01-13T23:55:14.967Z,11.30
2018-01-13T23:57:43.695Z,11.30
